الصفحة الرئيسية
METAR-TAF:

METAR-TAF

مطار :

مالاكا, ماليزيا

دائرة عرض: 02-16N, خط طول: 102-15E, ارتفاع: 11 متر

مراقبة الطقس الحالي

تاريخ ووقت الإصدار 1ساعة و 3 دقيقة قبل الساعة 17:00UTC
ريح 2 عقدةمن اتجاهات متغيرة
درجة الحرارة 26°درجة مئوية
الرطوبة 94%
ضغط 1011 hPa
الرؤية 10 كم أو أكثر
غيوم قليلة على ارتفاع 2400 قدم

METAR: WMKM 051700Z VRB02KT 9999 FEW024 26/25 Q1011

زمن: 02:03 (18:03 UTC)

توقعات

تاريخ ووقت الإصدار 1ساعة و 3 دقيقة قبل الساعة 17:00UTC
التوقعات صالحة من05 الساعة 18 UTC إلى 06 الساعة 18 UTC
ريح 2 عقدةمن اتجاهات متغيرة
الرؤية 10 كم أو أكثر
غيوم قليلة على ارتفاع 2600 قدم
مؤقت
من 05 الساعة 20 UTC إلى 05 الساعة 24 UTC
الرؤية: 5000 متر
غيوم قليلة على ارتفاع 1700 قدم, مزنة ركامية.
غيوم متفرقة على ارتفاع 2400 قدم
عاصفة رعدية, مطر

TAF: WMKM 051700Z 0518/0618 VRB02KT 9999 FEW026 TEMPO 0520/0524 5000 TSRA FEW017CB SCT024

أرصاد الطقس والتوقعات من أكثر من 4000 مطار (تقارير الطقس للمطار METAR والتنبؤ بالطقس بالمطارTAF).

المحطات المتاحة هي النقط الصفراء والحمراء على الخريطة.

حرك المؤشر فوق النقطة لمعرفة اسم المحطة.

ثم انقر لمعرفة أرصاد وتوقعات الطقس.

لتغيير الخارطة: اضغط على الأزرار الخضراء مع رمز الصليب الأسود للتكبير. على الزر الأخضر مع شرطة للتصغير، أو على الأسهم الخضراء للخرائط المجاورة.


METAR-TAF: